createdAt,value
2023-10-10T00:02:57.742Z,13.40
2023-10-10T00:06:00.098Z,13.50
2023-10-10T00:09:01.302Z,13.50
2023-10-10T00:12:04.137Z,13.40
2023-10-10T00:15:07.053Z,13.30
2023-10-10T00:18:12.786Z,13.30
2023-10-10T00:21:24.426Z,13.30
2023-10-10T00:24:32.530Z,13.40
2023-10-10T00:27:35.191Z,13.50
2023-10-10T00:30:44.746Z,13.50
2023-10-10T00:33:47.531Z,13.60
2023-10-10T00:36:49.401Z,13.60
2023-10-10T00:39:57.081Z,13.70
2023-10-10T00:43:05.537Z,13.90
2023-10-10T00:46:12.901Z,13.80
2023-10-10T00:49:18.449Z,13.60
2023-10-10T00:52:20.888Z,13.60
2023-10-10T00:55:26.970Z,13.80
2023-10-10T00:58:47.548Z,13.80
2023-10-10T01:01:49.003Z,13.80
2023-10-10T01:04:56.688Z,13.60
2023-10-10T01:08:00.696Z,13.50
2023-10-10T01:11:06.364Z,13.40
2023-10-10T01:14:07.672Z,13.50
2023-10-10T01:17:13.736Z,13.40
2023-10-10T01:20:22.048Z,13.40
2023-10-10T01:23:28.381Z,13.50
2023-10-10T01:26:38.541Z,13.50
2023-10-10T01:29:42.399Z,13.20
2023-10-10T01:32:43.410Z,13.10
2023-10-10T01:35:45.378Z,13.40
2023-10-10T01:39:01.413Z,13.60
2023-10-10T01:42:02.606Z,13.70
2023-10-10T01:45:10.315Z,13.50
2023-10-10T01:48:12.597Z,13.30
2023-10-10T01:51:16.990Z,13.20
2023-10-10T01:54:22.249Z,13.00
2023-10-10T01:57:23.627Z,12.70
2023-10-10T02:00:28.873Z,12.60
2023-10-10T02:03:30.512Z,12.50
2023-10-10T02:06:35.997Z,12.40
2023-10-10T02:09:41.532Z,12.50
2023-10-10T02:12:46.791Z,12.80
2023-10-10T02:15:48.095Z,13.00
2023-10-10T02:18:56.261Z,13.00
2023-10-10T02:22:15.587Z,13.00
2023-10-10T02:25:37.415Z,12.80
2023-10-10T02:28:45.365Z,12.70
2023-10-10T02:32:05.260Z,12.70
2023-10-10T02:35:28.185Z,12.60
2023-10-10T02:38:33.615Z,12.60
2023-10-10T02:41:40.814Z,12.70
2023-10-10T02:44:48.344Z,12.60
2023-10-10T02:47:54.815Z,12.60
2023-10-10T02:50:56.032Z,12.50
2023-10-10T02:53:58.872Z,12.60
2023-10-10T02:57:07.830Z,12.80
2023-10-10T03:00:24.117Z,12.70
2023-10-10T03:03:26.340Z,12.60
2023-10-10T03:06:30.329Z,12.40
2023-10-10T03:10:01.090Z,12.30
2023-10-10T03:13:27.460Z,12.00
2023-10-10T03:16:29.179Z,11.90
2023-10-10T03:19:40.328Z,11.90
2023-10-10T03:22:59.693Z,11.90
2023-10-10T03:26:01.005Z,11.90
2023-10-10T03:29:06.409Z,12.00
2023-10-10T03:32:22.969Z,12.20
2023-10-10T03:35:34.952Z,12.00
2023-10-10T03:38:39.339Z,12.10
2023-10-10T03:41:59.164Z,12.10
2023-10-10T03:45:18.841Z,11.90
2023-10-10T03:48:38.610Z,11.90
2023-10-10T03:51:57.988Z,11.60
2023-10-10T03:55:18.285Z,11.50
2023-10-10T03:58:37.587Z,11.60
2023-10-10T04:01:56.779Z,11.70
2023-10-10T04:05:27.119Z,11.70
2023-10-10T04:08:47.588Z,11.50
2023-10-10T04:12:07.762Z,11.30
2023-10-10T04:15:28.042Z,11.20
2023-10-10T04:18:47.804Z,11.30
2023-10-10T04:22:07.443Z,11.30
2023-10-10T04:25:26.695Z,11.40
2023-10-10T04:28:45.904Z,11.40
2023-10-10T04:32:05.183Z,11.40
2023-10-10T04:35:25.196Z,11.30
2023-10-10T04:38:44.406Z,11.40
2023-10-10T04:42:03.962Z,11.30
2023-10-10T04:45:24.255Z,11.40
2023-10-10T04:48:44.142Z,11.40
2023-10-10T04:52:03.702Z,11.40
2023-10-10T04:55:23.161Z,11.20
2023-10-10T04:58:42.258Z,11.10
2023-10-10T05:02:01.731Z,11.00
2023-10-10T05:05:21.034Z,10.80
2023-10-10T05:08:40.846Z,10.80
2023-10-10T05:12:00.503Z,10.90
2023-10-10T05:15:20.333Z,10.90
2023-10-10T05:18:39.847Z,11.30
2023-10-10T05:22:09.596Z,11.30
2023-10-10T05:25:14.582Z,11.20
2023-10-10T05:28:16.719Z,11.20
2023-10-10T05:31:22.985Z,11.20
2023-10-10T05:34:24.602Z,11.10
2023-10-10T05:37:26.532Z,10.90
2023-10-10T05:40:34.816Z,10.70
2023-10-10T05:43:36.508Z,10.70
2023-10-10T05:46:37.633Z,10.70
2023-10-10T05:49:38.695Z,10.80
2023-10-10T05:52:40.071Z,10.80
2023-10-10T05:55:42.247Z,11.00
2023-10-10T05:58:48.669Z,11.00
2023-10-10T06:01:49.768Z,10.90
2023-10-10T06:04:52.861Z,10.90
2023-10-10T06:07:54.004Z,10.90
2023-10-10T06:10:55.393Z,11.20
2023-10-10T06:13:56.427Z,11.50
2023-10-10T06:16:57.420Z,11.70
2023-10-10T06:19:58.507Z,11.60
2023-10-10T06:23:00.635Z,11.70
2023-10-10T06:26:08.461Z,11.90
2023-10-10T06:29:09.755Z,12.10
2023-10-10T06:32:17.094Z,12.20
2023-10-10T06:35:21.546Z,12.30
2023-10-10T06:38:26.048Z,12.50
2023-10-10T06:41:29.445Z,12.70
2023-10-10T06:44:34.002Z,12.80
2023-10-10T06:47:35.740Z,12.90
2023-10-10T06:50:40.288Z,13.00
2023-10-10T06:53:41.230Z,13.00
2023-10-10T06:57:02.408Z,13.10
2023-10-10T07:00:29.613Z,13.20
2023-10-10T07:03:41.569Z,13.30
2023-10-10T07:06:53.044Z,13.60
2023-10-10T07:09:59.581Z,13.70
2023-10-10T07:13:01.623Z,13.90
2023-10-10T07:16:03.090Z,14.10
2023-10-10T07:19:21.149Z,14.30
2023-10-10T07:22:23.653Z,14.40
2023-10-10T07:25:33.631Z,14.60
2023-10-10T07:28:49.438Z,14.80
2023-10-10T07:31:50.445Z,15.00
2023-10-10T07:34:54.028Z,15.20
2023-10-10T07:38:00.509Z,15.30
2023-10-10T07:41:01.844Z,15.50
2023-10-10T07:44:02.644Z,15.60
2023-10-10T07:47:11.154Z,15.80
2023-10-10T07:50:12.560Z,15.80
2023-10-10T07:53:14.408Z,15.90
2023-10-10T07:56:15.709Z,16.20
2023-10-10T07:59:19.061Z,16.30
2023-10-10T08:02:26.828Z,16.50
2023-10-10T08:05:31.050Z,16.70
2023-10-10T08:08:32.529Z,16.60
2023-10-10T08:11:39.844Z,16.40
2023-10-10T08:14:41.359Z,16.50
2023-10-10T08:17:52.996Z,17.10
2023-10-10T08:20:53.988Z,17.20
2023-10-10T08:24:00.955Z,17.20
2023-10-10T08:27:11.515Z,17.60
2023-10-10T08:30:14.941Z,17.40
2023-10-10T08:33:15.983Z,17.50
2023-10-10T08:36:25.071Z,17.80
2023-10-10T08:39:26.883Z,17.80
2023-10-10T08:42:28.665Z,18.10
2023-10-10T08:45:41.576Z,18.20
2023-10-10T08:48:43.442Z,18.00
2023-10-10T08:51:46.364Z,18.20
2023-10-10T08:54:49.192Z,18.30
2023-10-10T08:57:52.877Z,18.20
2023-10-10T09:00:55.526Z,18.40
2023-10-10T09:03:59.047Z,18.50
2023-10-10T09:07:01.910Z,18.70
2023-10-10T09:10:06.579Z,19.20
2023-10-10T09:13:08.948Z,19.80
2023-10-10T09:16:14.755Z,20.60
2023-10-10T09:19:16.152Z,20.90
2023-10-10T09:22:30.609Z,21.60
2023-10-10T09:25:45.664Z,21.40
2023-10-10T09:28:50.675Z,22.60
2023-10-10T09:32:00.824Z,22.70
2023-10-10T09:35:01.863Z,22.30
2023-10-10T09:38:05.535Z,22.70
2023-10-10T09:41:16.343Z,22.20
2023-10-10T09:44:25.406Z,22.40
2023-10-10T09:47:43.691Z,23.90
2023-10-10T09:51:09.526Z,25.10
2023-10-10T09:54:17.593Z,24.20
2023-10-10T09:57:19.341Z,24.00
2023-10-10T10:00:31.982Z,24.40
2023-10-10T10:03:36.251Z,24.90
2023-10-10T10:10:49.652Z,25.90
2023-10-10T10:14:08.529Z,26.50
2023-10-10T10:17:56.235Z,26.90
2023-10-10T10:21:18.292Z,25.50
2023-10-10T10:24:30.841Z,25.40
2023-10-10T10:27:41.061Z,26.10
2023-10-10T10:30:54.894Z,26.80
2023-10-10T10:34:25.279Z,26.90
2023-10-10T10:37:29.634Z,27.50
2023-10-10T10:40:41.916Z,27.50
2023-10-10T10:43:52.701Z,26.70
2023-10-10T10:46:57.997Z,25.70
2023-10-10T10:49:59.468Z,26.50
2023-10-10T10:53:06.870Z,26.10
2023-10-10T10:56:28.260Z,26.90
2023-10-10T10:59:40.502Z,26.60
2023-10-10T11:02:50.964Z,25.90
2023-10-10T11:05:55.593Z,24.80
2023-10-10T11:09:11.057Z,24.80
2023-10-10T11:12:14.360Z,25.40
2023-10-10T11:15:16.528Z,24.50
2023-10-10T11:18:25.715Z,26.30
2023-10-10T11:21:29.744Z,26.70
2023-10-10T11:24:33.165Z,26.90
2023-10-10T11:27:45.239Z,27.60
2023-10-10T11:30:47.322Z,27.90
2023-10-10T11:33:50.172Z,28.50
2023-10-10T11:36:52.646Z,28.90
2023-10-10T11:40:21.252Z,28.70
2023-10-10T11:43:24.072Z,25.50
2023-10-10T11:46:25.315Z,26.20
2023-10-10T11:49:27.234Z,26.00
2023-10-10T11:52:31.350Z,24.90
2023-10-10T11:55:32.424Z,26.70
2023-10-10T11:58:39.226Z,27.20
2023-10-10T12:01:55.962Z,27.50
2023-10-10T12:04:57.344Z,27.80
2023-10-10T12:08:02.896Z,28.40
2023-10-10T12:11:12.677Z,28.30
2023-10-10T12:14:20.605Z,28.00
2023-10-10T12:17:22.657Z,28.60
2023-10-10T12:20:23.856Z,29.80
2023-10-10T12:23:25.193Z,30.10
2023-10-10T12:26:26.279Z,31.30
2023-10-10T12:29:29.511Z,32.10
2023-10-10T12:32:35.619Z,33.50
2023-10-10T12:35:37.366Z,33.80
2023-10-10T12:38:41.821Z,33.20
2023-10-10T12:41:48.992Z,33.70
2023-10-10T12:44:50.437Z,33.60
2023-10-10T12:47:51.407Z,32.70
2023-10-10T12:50:53.448Z,32.20
2023-10-10T12:54:02.705Z,31.90
2023-10-10T12:57:07.506Z,31.20
2023-10-10T13:00:34.442Z,30.20
2023-10-10T13:03:35.859Z,29.00
2023-10-10T13:06:37.484Z,27.80
2023-10-10T13:09:44.296Z,27.30
2023-10-10T13:12:53.049Z,26.60
2023-10-10T13:16:09.101Z,27.70
2023-10-10T13:19:11.069Z,28.60
2023-10-10T13:22:22.490Z,27.90
2023-10-10T13:25:23.634Z,31.60
2023-10-10T13:28:24.739Z,35.20
2023-10-10T13:31:25.758Z,36.80
2023-10-10T13:34:26.928Z,37.50
2023-10-10T13:37:28.075Z,37.50
2023-10-10T13:40:37.528Z,36.30
2023-10-10T13:43:42.772Z,34.40
2023-10-10T13:46:43.931Z,34.40
2023-10-10T13:49:59.825Z,34.40
2023-10-10T13:53:00.994Z,34.20
2023-10-10T13:56:05.243Z,29.90
2023-10-10T13:59:06.352Z,27.90
2023-10-10T14:02:12.658Z,26.30
2023-10-10T14:05:21.352Z,26.10
2023-10-10T14:08:22.271Z,26.50
2023-10-10T14:11:23.462Z,26.40
2023-10-10T14:14:24.519Z,26.40
2023-10-10T14:17:25.536Z,25.30
2023-10-10T14:20:28.446Z,24.80
2023-10-10T14:23:31.377Z,24.50
2023-10-10T14:26:35.503Z,24.30
2023-10-10T14:29:43.509Z,24.20
2023-10-10T14:32:44.636Z,23.60
2023-10-10T14:35:46.189Z,23.20
2023-10-10T14:38:48.493Z,23.50
2023-10-10T14:41:49.521Z,23.30
2023-10-10T14:44:50.733Z,23.50
2023-10-10T14:47:53.316Z,22.70
2023-10-10T14:50:54.309Z,22.70
2023-10-10T14:53:55.243Z,22.90
2023-10-10T14:56:56.367Z,22.20
2023-10-10T14:59:57.558Z,22.70
2023-10-10T15:02:58.921Z,22.70
2023-10-10T15:06:07.646Z,22.10
2023-10-10T15:09:09.805Z,21.90
2023-10-10T15:12:11.237Z,21.70
2023-10-10T15:15:12.092Z,22.10
2023-10-10T15:18:17.726Z,22.20
2023-10-10T15:21:19.186Z,22.30
2023-10-10T15:24:20.817Z,22.10
2023-10-10T15:27:21.818Z,21.60
2023-10-10T15:30:22.805Z,21.40
2023-10-10T15:33:26.448Z,21.30
2023-10-10T15:36:32.187Z,21.40
2023-10-10T15:39:33.373Z,21.20
2023-10-10T15:42:34.637Z,21.00
2023-10-10T15:45:39.268Z,20.70
2023-10-10T15:48:43.832Z,20.70
2023-10-10T15:51:46.437Z,21.10
2023-10-10T15:54:52.108Z,22.20
2023-10-10T15:57:54.865Z,21.50
2023-10-10T16:00:59.203Z,20.40
2023-10-10T16:04:14.102Z,20.40
2023-10-10T16:07:18.166Z,20.30
2023-10-10T16:10:19.103Z,20.40
2023-10-10T16:13:20.330Z,20.50
2023-10-10T16:16:21.506Z,20.30
2023-10-10T16:19:27.328Z,20.20
2023-10-10T16:22:29.320Z,20.00
2023-10-10T16:25:30.214Z,19.60
2023-10-10T16:28:31.659Z,19.40
2023-10-10T16:31:32.910Z,19.30
2023-10-10T16:34:35.102Z,19.10
2023-10-10T16:37:37.965Z,18.80
2023-10-10T16:40:41.202Z,18.60
2023-10-10T16:43:58.039Z,18.60
2023-10-10T16:47:02.570Z,18.40
2023-10-10T16:50:03.566Z,18.20
2023-10-10T16:53:11.211Z,18.10
2023-10-10T16:56:14.010Z,17.90
2023-10-10T16:59:16.248Z,17.80
2023-10-10T17:02:17.900Z,17.70
2023-10-10T17:05:25.119Z,17.50
2023-10-10T17:08:26.139Z,17.50
2023-10-10T17:11:27.941Z,17.70
2023-10-10T17:14:30.619Z,17.70
2023-10-10T17:17:32.040Z,17.70
2023-10-10T17:20:32.902Z,17.50
2023-10-10T17:23:34.371Z,17.40
2023-10-10T17:26:35.764Z,17.50
2023-10-10T17:29:37.407Z,17.50
2023-10-10T17:32:41.601Z,17.30
2023-10-10T17:35:43.062Z,17.10
2023-10-10T17:38:45.511Z,16.80
2023-10-10T17:41:49.666Z,16.80
2023-10-10T17:44:50.730Z,16.80
2023-10-10T17:47:52.702Z,16.70
2023-10-10T17:50:53.852Z,16.50
2023-10-10T17:53:55.982Z,16.40
2023-10-10T17:56:57.945Z,16.40
2023-10-10T17:59:59.216Z,16.40
2023-10-10T18:03:05.189Z,16.40
2023-10-10T18:06:06.591Z,16.50
2023-10-10T18:09:10.394Z,16.50
2023-10-10T18:12:13.416Z,16.70
2023-10-10T18:15:20.201Z,16.60
2023-10-10T18:18:21.177Z,16.40
2023-10-10T18:21:22.456Z,16.30
2023-10-10T18:24:28.876Z,16.30
2023-10-10T18:27:29.882Z,16.30
2023-10-10T18:30:30.983Z,16.10
2023-10-10T18:33:31.783Z,16.10
2023-10-10T18:36:38.997Z,16.20
2023-10-10T18:39:40.561Z,16.10
2023-10-10T18:42:41.736Z,16.00
2023-10-10T18:45:42.569Z,15.90
2023-10-10T18:48:44.157Z,15.90
2023-10-10T18:51:45.371Z,16.00
2023-10-10T18:54:46.442Z,16.10
2023-10-10T18:57:49.400Z,16.10
2023-10-10T19:00:52.709Z,16.30
2023-10-10T19:03:53.948Z,16.20
2023-10-10T19:06:54.944Z,16.20
2023-10-10T19:09:57.945Z,16.10
2023-10-10T19:12:59.373Z,16.00
2023-10-10T19:16:03.401Z,16.00
2023-10-10T19:19:06.249Z,15.80
2023-10-10T19:22:07.310Z,15.70
2023-10-10T19:25:13.210Z,15.70
2023-10-10T19:28:16.450Z,15.90
2023-10-10T19:31:19.592Z,15.90
2023-10-10T19:34:20.754Z,16.00
2023-10-10T19:37:21.948Z,16.10
2023-10-10T19:40:24.778Z,16.40
2023-10-10T19:43:26.601Z,16.60
2023-10-10T19:46:30.298Z,16.80
2023-10-10T19:49:36.013Z,16.80
2023-10-10T19:52:41.983Z,16.80
2023-10-10T19:55:44.092Z,17.00
2023-10-10T19:58:47.260Z,17.10
2023-10-10T20:01:49.369Z,17.10
2023-10-10T20:04:51.699Z,16.90
2023-10-10T20:07:55.125Z,16.70
2023-10-10T20:10:57.916Z,16.60
2023-10-10T20:13:58.743Z,16.50
2023-10-10T20:16:59.808Z,16.40
2023-10-10T20:20:04.391Z,16.50
2023-10-10T20:23:07.913Z,16.70
2023-10-10T20:26:20.101Z,16.80
2023-10-10T20:29:21.494Z,16.90
2023-10-10T20:32:22.435Z,16.80
2023-10-10T20:35:26.808Z,16.70
2023-10-10T20:38:27.801Z,16.70
2023-10-10T20:41:29.169Z,16.50
2023-10-10T20:44:30.324Z,16.40
2023-10-10T20:47:31.339Z,16.50
2023-10-10T20:50:34.721Z,16.40
2023-10-10T20:53:35.548Z,16.30
2023-10-10T20:56:36.562Z,16.10
2023-10-10T20:59:37.464Z,15.90
2023-10-10T21:02:39.770Z,15.80
2023-10-10T21:05:44.159Z,15.70
2023-10-10T21:08:45.330Z,15.40
2023-10-10T21:11:46.573Z,14.90
2023-10-10T21:14:47.934Z,14.60
2023-10-10T21:17:53.279Z,14.40
2023-10-10T21:21:03.684Z,14.30
2023-10-10T21:24:07.955Z,14.30
2023-10-10T21:27:09.194Z,14.20
2023-10-10T21:30:13.876Z,14.10
2023-10-10T21:33:15.546Z,14.10
2023-10-10T21:36:16.954Z,14.00
2023-10-10T21:39:20.120Z,14.00
2023-10-10T21:42:25.769Z,14.00
2023-10-10T21:45:27.074Z,13.80
2023-10-10T21:48:28.022Z,13.70
2023-10-10T21:51:29.246Z,13.70
2023-10-10T21:54:33.536Z,13.70
2023-10-10T21:57:37.277Z,13.70
2023-10-10T22:00:38.394Z,13.50
2023-10-10T22:03:43.945Z,13.30
2023-10-10T22:06:46.807Z,13.20
2023-10-10T22:09:49.770Z,13.20
2023-10-10T22:12:56.426Z,13.10
2023-10-10T22:15:57.771Z,13.10
2023-10-10T22:18:59.571Z,13.00
2023-10-10T22:22:02.140Z,13.00
2023-10-10T22:25:04.555Z,13.00
2023-10-10T22:28:06.000Z,12.90
2023-10-10T22:31:16.547Z,12.80
2023-10-10T22:34:19.216Z,12.60
2023-10-10T22:37:21.465Z,12.60
2023-10-10T22:40:28.440Z,12.50
2023-10-10T22:43:29.315Z,12.30
2023-10-10T22:46:31.558Z,12.50
2023-10-10T22:49:32.810Z,12.50
2023-10-10T22:52:38.320Z,12.60
2023-10-10T22:55:40.936Z,12.60
2023-10-10T22:58:44.125Z,12.60
2023-10-10T23:01:46.749Z,12.60
2023-10-10T23:04:48.338Z,12.60
2023-10-10T23:07:49.258Z,12.50
2023-10-10T23:10:50.394Z,12.50
2023-10-10T23:13:53.499Z,12.40
2023-10-10T23:16:56.972Z,12.50
2023-10-10T23:19:57.789Z,12.40
2023-10-10T23:23:00.865Z,12.30
2023-10-10T23:26:04.978Z,12.00
2023-10-10T23:29:05.759Z,11.90
2023-10-10T23:32:07.312Z,12.00
2023-10-10T23:35:09.866Z,11.90
2023-10-10T23:38:11.108Z,11.90
2023-10-10T23:41:15.722Z,12.00
2023-10-10T23:44:18.117Z,12.00
2023-10-10T23:47:18.777Z,11.90
2023-10-10T23:50:23.600Z,11.80
2023-10-10T23:53:25.129Z,11.80
2023-10-10T23:56:26.364Z,11.80
2023-10-10T23:59:27.431Z,11.90
